Time;durP1;ratioP1;P1;durP2;ratioP2;P2;SDS_P1;SDS_P2;PMS_P1;PMS_P2;Temp;Humidity;BMP_temperature;BMP_pressure;BME280_temperature;BME280_humidity;BME280_pressure;Samples;Min_cycle;Max_cycle;Signal;HPM_P1;HPM_P2
2022/03/20 00:01:19;;;;;;;77.40;37.80;;;;;;;0.19;30.23;101597.20;106156;1273;96693;-70
2022/03/20 00:03:48;;;;;;;80.60;39.60;;;;;;;0.16;30.31;101602.75;105990;1274;112078;-66
2022/03/20 00:06:18;;;;;;;86.40;40.10;;;;;;;0.14;30.48;101606.39;106112;1273;96990;-68
2022/03/20 00:08:46;;;;;;;90.80;40.40;;;;;;;0.12;30.40;101609.33;106044;1273;108720;-69
2022/03/20 00:11:14;;;;;;;86.00;41.20;;;;;;;0.07;30.58;101610.15;105955;1273;99212;-67
2022/03/20 00:13:44;;;;;;;85.70;41.20;;;;;;;0.04;30.57;101615.52;106000;1273;99217;-68
2022/03/20 00:16:14;;;;;;;87.60;42.20;;;;;;;0.02;30.47;101612.88;105964;1274;113780;-69
2022/03/20 00:18:43;;;;;;;86.90;42.80;;;;;;;-0.03;30.33;101610.22;106100;1273;96743;-69
2022/03/20 00:21:11;;;;;;;87.80;43.70;;;;;;;-0.05;30.48;101611.23;106131;1274;107008;-69
2022/03/20 00:23:44;;;;;;;93.90;42.00;;;;;;;-0.08;30.51;101609.98;105990;1273;96557;-70
2022/03/20 00:26:18;;;;;;;81.90;41.90;;;;;;;-0.12;30.69;101607.31;106090;1273;99389;-68
2022/03/20 00:28:45;;;;;;;80.20;40.70;;;;;;;-0.15;30.76;101609.02;106050;1273;112716;-68
2022/03/20 00:31:14;;;;;;;91.90;42.90;;;;;;;-0.17;30.72;101615.43;106100;1273;97934;-69
2022/03/20 00:33:42;;;;;;;91.50;45.00;;;;;;;-0.19;30.90;101614.90;105895;1274;108456;-68
2022/03/20 00:36:10;;;;;;;83.70;40.60;;;;;;;-0.22;30.92;101618.19;106049;1273;99464;-70
2022/03/20 00:38:38;;;;;;;80.90;40.50;;;;;;;-0.26;31.06;101619.17;105945;1274;99203;-71
2022/03/20 00:41:06;;;;;;;86.50;42.40;;;;;;;-0.29;31.15;101621.23;106013;1273;113425;-69
2022/03/20 00:43:36;;;;;;;86.10;43.20;;;;;;;-0.33;30.89;101623.27;106113;1273;99238;-72
2022/03/20 00:46:05;;;;;;;97.60;46.00;;;;;;;-0.38;31.03;101620.59;106030;1274;108166;-69
2022/03/20 00:48:32;;;;;;;89.10;43.40;;;;;;;-0.42;31.07;101623.33;105967;1273;99216;-70
2022/03/20 00:51:06;;;;;;;92.30;44.40;;;;;;;-0.47;30.92;101625.87;105775;1274;97816;-70
2022/03/20 00:53:36;;;;;;;101.40;47.10;;;;;;;-0.53;31.26;101620.55;105930;1274;114191;-72
2022/03/20 00:56:07;;;;;;;108.20;49.90;;;;;;;-0.58;31.08;101622.23;106042;1274;99240;-72
2022/03/20 00:58:37;;;;;;;110.00;51.90;;;;;;;-0.64;31.32;101625.13;105989;1273;107767;-71
2022/03/20 01:01:05;;;;;;;107.90;50.40;;;;;;;-0.67;30.96;101625.75;105941;1273;99256;-70
2022/03/20 01:03:38;;;;;;;111.70;50.20;;;;;;;-0.74;30.69;101626.02;105992;1274;99285;-72
2022/03/20 01:06:11;;;;;;;123.80;49.10;;;;;;;-0.79;31.25;101629.41;106057;1273;112765;-70
2022/03/20 01:08:40;;;;;;;105.80;47.50;;;;;;;-0.82;31.04;101627.80;106113;1273;99270;-70
2022/03/20 01:11:10;;;;;;;104.80;51.10;;;;;;;-0.86;31.30;101627.91;106086;1273;108331;-69
2022/03/20 01:13:40;;;;;;;114.60;52.70;;;;;;;-0.88;31.11;101625.95;106068;1273;99405;-66
2022/03/20 01:16:10;;;;;;;113.30;52.30;;;;;;;-0.90;31.43;101626.81;106050;1273;99318;-67
2022/03/20 01:18:41;;;;;;;99.80;48.40;;;;;;;-0.92;31.62;101625.55;105993;1273;113277;-71
2022/03/20 01:21:09;;;;;;;97.90;47.70;;;;;;;-0.97;31.13;101620.25;106018;1273;99699;-69
2022/03/20 01:23:38;;;;;;;103.60;50.70;;;;;;;-1.00;31.42;101621.59;105942;1274;108216;-74
2022/03/20 01:26:11;;;;;;;110.50;51.80;;;;;;;-1.04;31.47;101625.73;105957;1274;99196;-70
2022/03/20 01:28:39;;;;;;;103.40;48.40;;;;;;;-1.06;31.60;101627.24;106073;1273;99327;-70
2022/03/20 01:31:10;;;;;;;108.20;49.80;;;;;;;-1.11;31.43;101623.85;106159;1274;112728;-69
2022/03/20 01:33:38;;;;;;;98.80;47.10;;;;;;;-1.15;31.69;101625.52;106032;1273;99339;-69
2022/03/20 01:36:06;;;;;;;101.90;48.90;;;;;;;-1.19;31.78;101621.64;106012;1274;107766;-70
2022/03/20 01:38:35;;;;;;;102.40;48.90;;;;;;;-1.21;31.68;101622.13;106081;1274;98279;-68
2022/03/20 01:41:05;;;;;;;95.80;46.00;;;;;;;-1.25;31.92;101621.89;106013;1273;99282;-68
2022/03/20 01:43:33;;;;;;;100.60;46.70;;;;;;;-1.30;31.87;101615.89;106025;1273;113284;-68
2022/03/20 01:46:02;;;;;;;98.80;45.40;;;;;;;-1.34;32.09;101617.38;106059;1273;99108;-68
2022/03/20 01:48:32;;;;;;;98.10;46.50;;;;;;;-1.36;31.72;101616.65;106076;1274;108343;-69
2022/03/20 01:51:03;;;;;;;98.70;45.20;;;;;;;-1.41;31.84;101613.95;105966;1273;96761;-70
2022/03/20 01:53:32;;;;;;;102.00;45.70;;;;;;;-1.45;31.96;101612.84;106040;1272;96673;-70
2022/03/20 01:56:04;;;;;;;96.70;47.90;;;;;;;-1.47;31.90;101610.02;105999;1273;113795;-70
2022/03/20 01:58:38;;;;;;;99.60;46.00;;;;;;;-1.49;32.18;101611.20;106003;1273;99304;-70
2022/03/20 02:01:05;;;;;;;95.60;45.80;;;;;;;-1.51;32.33;101612.39;105969;1274;107723;-69
2022/03/20 02:03:38;;;;;;;100.00;45.10;;;;;;;-1.54;32.12;101613.55;106085;1274;99193;-68
2022/03/20 02:06:07;;;;;;;94.50;45.00;;;;;;;-1.57;32.26;101612.45;106074;1273;99172;-68
2022/03/20 02:08:42;;;;;;;94.20;44.40;;;;;;;-1.59;32.16;101609.11;106059;1274;113620;-70
2022/03/20 02:11:10;;;;;;;89.00;43.40;;;;;;;-1.62;32.13;101609.92;106028;1274;99215;-69
2022/03/20 02:13:37;;;;;;;88.50;43.90;;;;;;;-1.64;32.26;101610.41;106128;1274;108171;-68
2022/03/20 02:16:08;;;;;;;94.60;43.70;;;;;;;-1.65;32.14;101613.19;106146;1274;99216;-67
2022/03/20 02:18:36;;;;;;;84.30;41.50;;;;;;;-1.67;32.36;101609.31;106052;1273;96529;-69
2022/03/20 02:21:08;;;;;;;85.00;41.30;;;;;;;-1.70;31.94;101612.38;106039;1273;112811;-69
2022/03/20 02:23:38;;;;;;;82.90;40.70;;;;;;;-1.72;32.38;101612.86;106067;1274;97710;-69
2022/03/20 02:26:06;;;;;;;88.40;41.90;;;;;;;-1.75;32.17;101612.62;106015;1273;108453;-67
2022/03/20 02:28:33;;;;;;;89.40;42.40;;;;;;;-1.78;32.31;101615.38;106031;1273;99327;-68
2022/03/20 02:31:02;;;;;;;88.80;43.80;;;;;;;-1.81;32.35;101617.04;106130;1273;99295;-70
2022/03/20 02:33:32;;;;;;;83.20;42.00;;;;;;;-1.84;32.41;101618.04;105967;1274;112354;-69
2022/03/20 02:36:01;;;;;;;81.90;42.90;;;;;;;-1.87;32.22;101618.52;105997;1273;99204;-69
2022/03/20 02:38:34;;;;;;;77.90;41.00;;;;;;;-1.89;32.95;101619.15;106046;1274;108369;-68
2022/03/20 02:41:14;;;;;;;82.90;40.50;;;;;;;-1.91;32.75;101619.48;106085;1273;99367;-68
2022/03/20 02:43:50;;;;;;;89.50;42.20;;;;;;;-1.93;32.82;101622.04;106001;1273;99274;-70
2022/03/20 02:46:18;;;;;;;81.50;43.40;;;;;;;-1.97;32.53;101625.27;106132;1273;112597;-69
2022/03/20 02:48:48;;;;;;;83.20;42.10;;;;;;;-1.99;32.89;101621.21;106063;1274;99301;-69
2022/03/20 02:51:17;;;;;;;83.40;42.00;;;;;;;-2.02;32.63;101622.90;106046;1273;108617;-70
2022/03/20 02:53:46;;;;;;;81.30;42.20;;;;;;;-2.05;32.61;101621.47;106034;1274;99215;-68
2022/03/20 02:56:13;;;;;;;84.40;42.50;;;;;;;-2.08;32.60;101621.39;106148;1273;99921;-69
2022/03/20 02:58:41;;;;;;;82.60;41.00;;;;;;;-2.11;32.68;101619.61;106093;1273;112666;-69
2022/03/20 03:01:09;;;;;;;86.80;43.70;;;;;;;-2.13;32.88;101624.95;106076;1273;99230;-69
2022/03/20 03:03:40;;;;;;;84.20;42.70;;;;;;;-2.14;32.98;101624.73;106092;1273;108264;-71
2022/03/20 03:06:09;;;;;;;77.90;41.10;;;;;;;-2.15;33.00;101621.77;106058;1273;97710;-69
2022/03/20 03:11:25;;;;;;;74.50;39.90;;;;;;;-2.17;33.15;101620.52;106153;1273;113622;-69
2022/03/20 03:13:53;;;;;;;81.10;38.30;;;;;;;-2.18;32.79;101622.05;106068;1273;99257;-71
2022/03/20 03:16:21;;;;;;;79.70;41.00;;;;;;;-2.25;33.61;101622.95;106083;1273;108125;-71
2022/03/20 03:18:49;;;;;;;76.60;37.70;;;;;;;-2.34;33.66;101618.93;106028;1273;100355;-69
2022/03/20 03:21:20;;;;;;;79.40;39.30;;;;;;;-2.41;34.76;101621.05;106014;1274;99183;-68
2022/03/20 03:23:48;;;;;;;79.20;40.30;;;;;;;-2.51;35.34;101627.45;106051;1274;112532;-69
2022/03/20 03:26:15;;;;;;;79.60;40.70;;;;;;;-2.61;34.99;101628.77;106079;1273;99242;-70
2022/03/20 03:28:43;;;;;;;85.80;40.90;;;;;;;-2.66;34.59;101628.14;106025;1273;108381;-69
2022/03/20 03:31:13;;;;;;;88.80;45.20;;;;;;;-2.64;34.38;101632.88;106101;1273;99309;-70
2022/03/20 03:36:32;;;;;;;78.30;41.40;;;;;;;-2.56;34.64;101636.20;105987;1273;180066;-70
2022/03/20 03:38:59;;;;;;;83.40;41.30;;;;;;;-2.54;34.43;101635.88;106136;1273;99320;-69
2022/03/20 03:41:27;;;;;;;82.80;41.80;;;;;;;-2.52;34.42;101638.19;106164;1273;106818;-70
2022/03/20 03:43:55;;;;;;;81.80;41.20;;;;;;;-2.50;34.47;101638.40;106106;1273;99226;-69
2022/03/20 03:46:25;;;;;;;82.90;42.50;;;;;;;-2.49;34.19;101641.90;106098;1273;99775;-69
2022/03/20 03:48:55;;;;;;;86.60;43.00;;;;;;;-2.49;34.48;101641.72;106106;1273;112782;-68
2022/03/20 03:51:26;;;;;;;83.10;44.00;;;;;;;-2.51;34.25;101641.00;106198;1273;99085;-69
2022/03/20 03:53:54;;;;;;;86.50;43.60;;;;;;;-2.51;34.47;101643.41;106148;1273;107878;-69
2022/03/20 03:56:22;;;;;;;81.60;41.00;;;;;;;-2.54;34.32;101643.00;106181;1273;98350;-70
2022/03/20 03:58:49;;;;;;;88.50;44.10;;;;;;;-2.57;34.68;101646.42;106150;1273;97006;-69
2022/03/20 04:01:17;;;;;;;83.30;41.20;;;;;;;-2.59;34.76;101650.54;106197;1273;112335;-67
2022/03/20 04:03:47;;;;;;;79.70;43.40;;;;;;;-2.62;34.53;101651.34;106206;1273;96548;-69
2022/03/20 04:06:18;;;;;;;92.10;45.60;;;;;;;-2.64;34.56;101655.47;106210;1273;108369;-71
2022/03/20 04:08:45;;;;;;;86.20;42.80;;;;;;;-2.66;34.52;101659.08;106122;1273;96724;-70
2022/03/20 04:11:14;;;;;;;89.70;43.60;;;;;;;-2.69;34.55;101664.05;106016;1274;96605;-72
2022/03/20 04:13:41;;;;;;;87.10;44.10;;;;;;;-2.73;34.60;101666.56;106011;1274;113280;-72
2022/03/20 04:16:09;;;;;;;94.60;44.10;;;;;;;-2.75;34.76;101667.70;106021;1274;99120;-70
2022/03/20 04:18:39;;;;;;;88.50;44.80;;;;;;;-2.79;34.63;101670.56;105985;1274;108337;-68
2022/03/20 04:21:07;;;;;;;84.60;44.70;;;;;;;-2.81;34.66;101669.48;106024;1273;96649;-69
2022/03/20 04:23:48;;;;;;;96.10;44.80;;;;;;;-2.86;34.84;101670.93;105997;1274;99320;-69
2022/03/20 04:26:23;;;;;;;85.50;42.60;;;;;;;-2.92;34.83;101669.05;106023;1273;113994;-69
2022/03/20 04:28:54;;;;;;;76.50;41.80;;;;;;;-2.99;34.55;101664.02;106070;1274;99201;-69
2022/03/20 04:31:21;;;;;;;85.50;44.60;;;;;;;-3.05;34.62;101666.98;106076;1274;108347;-67
2022/03/20 04:33:55;;;;;;;81.10;41.50;;;;;;;-3.08;34.59;101669.70;106093;1274;96641;-68
2022/03/20 04:36:30;;;;;;;93.80;46.30;;;;;;;-3.11;34.94;101668.75;106081;1274;99328;-68
2022/03/20 04:39:01;;;;;;;87.10;42.80;;;;;;;-3.17;34.73;101667.39;106020;1274;113903;-68
2022/03/20 04:41:33;;;;;;;80.70;45.00;;;;;;;-3.20;34.61;101672.86;106039;1274;99212;-66
2022/03/20 04:44:01;;;;;;;90.60;46.50;;;;;;;-3.22;35.09;101667.95;105998;1274;108628;-69
2022/03/20 04:46:30;;;;;;;87.10;44.90;;;;;;;-3.22;34.91;101668.45;106005;1274;99311;-67
2022/03/20 05:00:11;;;;;;;93.40;46.20;;;;;;;-3.30;35.21;101678.85;106100;1274;99215;-67
2022/03/20 05:02:41;;;;;;;88.10;47.20;;;;;;;-3.31;35.37;101687.34;106109;1274;99303;-67
2022/03/20 05:05:09;;;;;;;92.10;47.40;;;;;;;-3.31;35.13;101687.33;106061;1274;113423;-67
2022/03/20 05:07:39;;;;;;;95.40;47.30;;;;;;;-3.34;35.38;101689.34;106024;1275;96615;-66
2022/03/20 05:15:53;;;;;;;87.60;46.20;;;;;;;-3.34;35.70;101684.64;106101;1274;98385;-69
2022/03/20 05:18:24;;;;;;;91.40;47.20;;;;;;;-3.35;35.84;101688.62;106061;1274;113873;-72
2022/03/20 05:20:52;;;;;;;93.90;45.60;;;;;;;-3.36;35.80;101689.63;106008;1274;99259;-70
2022/03/20 05:23:23;;;;;;;92.60;46.40;;;;;;;-3.34;35.67;101698.87;106010;1274;107806;-69
2022/03/20 05:25:51;;;;;;;90.90;48.40;;;;;;;-3.32;35.88;101699.12;105970;1274;99363;-68
2022/03/20 05:28:21;;;;;;;92.30;45.10;;;;;;;-3.29;35.67;101705.09;106021;1274;99338;-68
2022/03/20 05:30:54;;;;;;;96.60;45.80;;;;;;;-3.26;35.96;101702.36;106026;1274;113342;-68
2022/03/20 05:33:22;;;;;;;94.20;48.50;;;;;;;-3.23;35.98;101701.77;106035;1274;99165;-69
2022/03/20 05:35:53;;;;;;;95.70;48.40;;;;;;;-3.19;36.06;101704.29;106045;1274;107352;-69
2022/03/20 05:38:24;;;;;;;98.70;49.80;;;;;;;-3.17;36.00;101705.40;106065;1274;99291;-69
2022/03/20 05:41:43;;;;;;;95.40;49.10;;;;;;;-3.12;36.20;101705.69;105935;1274;99296;-67
2022/03/20 05:43:39;;;;;;;93.60;48.50;;;;;;;-3.08;36.38;101705.48;106057;1274;113406;-68
2022/03/20 05:46:09;;;;;;;91.00;47.40;;;;;;;-3.03;36.22;101707.30;105991;1274;99058;-67
2022/03/20 05:48:39;;;;;;;85.40;44.20;;;;;;;-2.98;36.34;101708.12;106057;1274;108297;-70
2022/03/20 05:51:07;;;;;;;90.20;46.90;;;;;;;-2.94;36.37;101714.32;106139;1273;99239;-68
2022/03/20 05:53:35;;;;;;;89.30;46.60;;;;;;;-2.90;36.36;101718.08;106178;1273;99289;-68
2022/03/20 05:58:52;;;;;;;87.10;48.70;;;;;;;-2.79;36.65;101727.17;106105;1275;99929;-70
2022/03/20 06:01:23;;;;;;;103.00;51.20;;;;;;;-2.75;36.57;101732.14;105979;1274;107708;-69
2022/03/20 06:03:54;;;;;;;99.10;51.80;;;;;;;-2.68;36.45;101732.32;106136;1274;99313;-67
2022/03/20 06:06:22;;;;;;;86.60;45.20;;;;;;;-2.62;36.69;101730.20;106040;1277;99281;-68
2022/03/20 06:08:50;;;;;;;81.80;43.80;;;;;;;-2.55;36.32;101734.38;106123;1274;113456;-69
2022/03/20 06:11:20;;;;;;;83.50;46.40;;;;;;;-2.48;36.72;101736.29;106114;1274;99416;-69
2022/03/20 06:13:48;;;;;;;77.80;44.10;;;;;;;-2.40;36.87;101735.76;106037;1274;107742;-69
2022/03/20 06:16:18;;;;;;;83.90;45.60;;;;;;;-2.32;36.87;101735.09;105960;1274;96601;-69
2022/03/20 06:18:46;;;;;;;83.40;42.50;;;;;;;-2.25;37.03;101729.34;106015;1274;96690;-69
2022/03/20 06:21:14;;;;;;;80.80;42.60;;;;;;;-2.17;36.90;101731.08;105979;1274;113358;-68
2022/03/20 06:23:45;;;;;;;75.90;42.30;;;;;;;-2.09;36.97;101735.77;105993;1274;96637;-68
2022/03/20 06:26:13;;;;;;;78.90;44.50;;;;;;;-2.00;37.17;101741.02;105951;1273;107524;-68
2022/03/20 06:28:42;;;;;;;72.20;42.10;;;;;;;-1.92;37.50;101739.98;106072;1273;96596;-72
2022/03/20 06:31:12;;;;;;;74.40;43.60;;;;;;;-1.83;37.23;101746.95;106039;1274;96551;-68
2022/03/20 06:34:00;;;;;;;79.10;42.60;;;;;;;-1.73;37.30;101749.23;106098;1275;112066;-68
2022/03/20 06:36:33;;;;;;;74.70;43.60;;;;;;;-1.65;37.32;101741.94;106085;1275;96667;-69
2022/03/20 06:39:01;;;;;;;69.70;42.60;;;;;;;-1.57;37.62;101741.06;106099;1274;108465;-69
2022/03/20 06:41:29;;;;;;;81.00;43.90;;;;;;;-1.47;37.58;101745.95;106042;1275;99756;-70
2022/03/20 06:43:57;;;;;;;79.30;43.40;;;;;;;-1.38;37.55;101743.70;106019;1274;99101;-69
2022/03/20 06:46:27;;;;;;;76.10;43.70;;;;;;;-1.29;37.46;101749.27;106026;1274;113372;-70
2022/03/20 06:48:57;;;;;;;77.30;41.60;;;;;;;-1.19;37.60;101752.40;106046;1273;99281;-72
2022/03/20 06:51:25;;;;;;;79.20;42.50;;;;;;;-1.10;37.65;101755.19;105915;1275;107782;-71
2022/03/20 06:53:53;;;;;;;75.40;43.30;;;;;;;-1.01;37.72;101756.04;106071;1274;99213;-71
2022/03/20 06:56:21;;;;;;;75.30;42.50;;;;;;;-0.92;37.77;101759.88;105956;1274;99270;-71
2022/03/20 06:58:49;;;;;;;83.00;45.70;;;;;;;-0.82;37.97;101760.38;106121;1273;111423;-71
2022/03/20 07:01:16;;;;;;;79.40;45.80;;;;;;;-0.72;38.09;101764.92;106134;1273;99232;-72
2022/03/20 07:03:45;;;;;;;80.40;45.80;;;;;;;-0.62;37.74;101770.84;106101;1273;108348;-71
2022/03/20 07:06:13;;;;;;;77.50;46.20;;;;;;;-0.52;38.13;101766.31;106124;1273;96736;-73
2022/03/20 07:08:41;;;;;;;78.60;46.40;;;;;;;-0.41;38.02;101771.36;106062;1273;99288;-70
2022/03/20 07:11:09;;;;;;;84.50;46.70;;;;;;;-0.31;37.96;101771.34;106069;1273;112754;-71
2022/03/20 07:13:49;;;;;;;77.70;45.90;;;;;;;-0.20;38.14;101773.78;106030;1274;97643;-70
2022/03/20 07:16:21;;;;;;;72.40;43.00;;;;;;;-0.09;38.22;101768.01;106110;1273;107789;-73
2022/03/20 07:18:48;;;;;;;74.30;43.00;;;;;;;0.02;38.32;101762.05;106102;1273;99205;-71
2022/03/20 07:21:18;;;;;;;74.70;42.20;;;;;;;0.12;38.30;101763.95;106005;1273;99392;-69
2022/03/20 07:23:51;;;;;;;75.10;42.50;;;;;;;0.22;38.14;101767.91;106096;1273;112801;-70
2022/03/20 07:29:31;;;;;;;74.90;41.70;;;;;;;0.45;38.49;101761.39;105727;1281;107899;-72
2022/03/20 07:32:04;;;;;;;71.50;38.30;;;;;;;0.59;38.93;101760.52;106016;1274;99409;-71
2022/03/20 07:34:39;;;;;;;66.90;37.80;;;;;;;0.74;38.79;101762.44;106045;1274;99237;-67
2022/03/20 07:37:09;;;;;;;70.40;37.80;;;;;;;0.87;38.68;101758.91;106143;1273;112513;-66
2022/03/20 07:39:37;;;;;;;58.60;33.50;;;;;;;1.01;38.70;101758.54;106009;1274;99389;-68
2022/03/20 07:42:08;;;;;;;64.40;34.90;;;;;;;1.17;38.94;101756.06;105994;1275;108023;-68
2022/03/20 07:44:38;;;;;;;65.30;35.40;;;;;;;1.35;39.10;101758.67;106031;1274;99321;-69
2022/03/20 07:47:11;;;;;;;58.60;33.90;;;;;;;1.50;38.89;101759.67;105939;1275;99212;-68
2022/03/20 07:49:42;;;;;;;60.40;35.10;;;;;;;1.64;38.95;101758.90;105955;1274;112374;-69
2022/03/20 07:52:11;;;;;;;54.80;30.00;;;;;;;1.81;39.05;101761.11;105992;1274;99215;-69
2022/03/20 07:54:40;;;;;;;51.60;28.70;;;;;;;2.02;38.91;101766.67;105944;1274;109180;-70
2022/03/20 07:57:08;;;;;;;52.00;30.20;;;;;;;2.23;39.57;101769.08;105983;1274;97682;-73
2022/03/20 07:59:36;;;;;;;56.60;31.10;;;;;;;2.41;39.20;101766.89;106039;1274;96658;-70
2022/03/20 08:02:05;;;;;;;55.80;32.20;;;;;;;2.58;39.19;101766.08;106165;1273;112531;-72
2022/03/20 08:04:34;;;;;;;54.70;32.40;;;;;;;2.77;39.33;101764.04;106081;1275;97654;-74
2022/03/20 08:07:04;;;;;;;59.40;30.80;;;;;;;3.00;39.22;101759.71;106176;1273;107598;-70
2022/03/20 08:09:32;;;;;;;57.80;31.40;;;;;;;3.21;39.06;101758.35;106042;1274;99234;-70
2022/03/20 08:12:01;;;;;;;48.40;26.40;;;;;;;3.39;39.37;101760.64;106218;1273;99241;-69
2022/03/20 08:14:51;;;;;;;47.10;25.40;;;;;;;3.60;39.58;101757.11;106136;1273;113419;-69
2022/03/20 08:17:18;;;;;;;43.60;24.40;;;;;;;3.74;39.67;101749.38;106154;1273;98354;-69
2022/03/20 08:19:48;;;;;;;43.60;22.90;;;;;;;3.93;39.54;101750.77;106054;1274;109326;-69
2022/03/20 08:22:17;;;;;;;42.20;22.40;;;;;;;4.13;39.66;101746.31;106172;1273;96733;-68
2022/03/20 08:24:47;;;;;;;43.60;22.80;;;;;;;4.33;39.23;101742.04;106276;1273;99244;-69
2022/03/20 08:27:16;;;;;;;39.90;19.20;;;;;;;4.54;39.73;101740.70;106027;1273;113375;-68
2022/03/20 08:29:45;;;;;;;40.00;19.60;;;;;;;4.73;39.37;101737.27;105969;1275;100377;-68
2022/03/20 08:32:13;;;;;;;38.30;19.30;;;;;;;4.95;39.57;101740.48;105891;1276;108592;-77
2022/03/20 08:34:41;;;;;;;36.70;20.30;;;;;;;5.22;39.48;101745.41;105971;1274;99245;-67
2022/03/20 08:37:09;;;;;;;34.90;19.40;;;;;;;5.41;39.33;101739.10;106018;1274;96800;-70
2022/03/20 08:39:37;;;;;;;36.50;18.50;;;;;;;5.65;39.41;101734.13;106021;1275;113157;-68
2022/03/20 08:42:07;;;;;;;34.20;17.20;;;;;;;5.97;39.56;101732.59;105994;1273;99273;-68
2022/03/20 08:44:35;;;;;;;33.80;17.40;;;;;;;6.77;39.52;101726.85;106127;1273;108364;-67
2022/03/20 08:47:03;;;;;;;35.40;18.70;;;;;;;7.74;39.53;101724.06;105907;1273;100018;-67
2022/03/20 08:49:32;;;;;;;27.70;12.80;;;;;;;8.72;39.56;101717.52;105921;1273;99346;-66
2022/03/20 08:52:08;;;;;;;23.30;11.60;;;;;;;9.66;39.50;101718.41;105996;1275;113320;-68
2022/03/20 08:54:37;;;;;;;23.40;10.50;;;;;;;10.65;39.62;101710.70;106102;1273;96682;-67
2022/03/20 08:57:07;;;;;;;24.20;11.20;;;;;;;11.62;39.58;101704.72;106092;1273;108744;-67
2022/03/20 08:59:36;;;;;;;22.50;9.80;;;;;;;12.53;39.69;101697.88;106030;1273;99300;-67
2022/03/20 09:02:06;;;;;;;21.10;9.60;;;;;;;13.20;39.50;101701.63;106085;1273;99451;-67
2022/03/20 09:04:34;;;;;;;22.10;9.80;;;;;;;13.73;39.37;101699.79;106054;1274;113499;-67
2022/03/20 09:07:03;;;;;;;24.80;12.80;;;;;;;14.26;39.42;101698.86;106170;1273;97730;-67
2022/03/20 09:09:31;;;;;;;22.60;10.80;;;;;;;14.39;38.87;101704.27;105956;1274;108415;-69
2022/03/20 09:12:01;;;;;;;19.40;9.50;;;;;;;14.44;38.80;101704.08;106034;1273;99289;-69
2022/03/20 09:14:31;;;;;;;20.40;10.30;;;;;;;14.59;38.85;101701.59;106011;1274;99291;-67
2022/03/20 09:19:47;;;;;;;21.30;10.20;;;;;;;14.50;38.03;101693.41;106062;1273;97916;-67
2022/03/20 09:22:16;;;;;;;19.80;9.90;;;;;;;14.51;37.88;101693.19;106089;1274;108644;-68
2022/03/20 09:24:44;;;;;;;22.30;10.70;;;;;;;14.60;38.08;101693.70;106139;1273;99217;-66
2022/03/20 09:27:17;;;;;;;24.90;13.30;;;;;;;14.49;36.08;101693.67;106101;1274;98326;-67
2022/03/20 09:29:47;;;;;;;24.30;10.90;;;;;;;14.13;35.74;101692.30;106085;1273;113298;-67
2022/03/20 09:32:17;;;;;;;24.50;10.80;;;;;;;13.75;34.51;101689.67;105991;1275;99392;-68
2022/03/20 09:34:46;;;;;;;29.80;15.70;;;;;;;13.50;35.24;101691.13;105977;1273;108355;-68
2022/03/20 09:37:14;;;;;;;24.60;13.30;;;;;;;13.63;33.20;101691.99;105959;1273;99231;-67
2022/03/20 09:39:42;;;;;;;20.70;11.40;;;;;;;13.39;33.29;101691.41;106053;1273;99309;-70
2022/03/20 09:42:10;;;;;;;23.80;11.60;;;;;;;13.48;33.98;101694.58;106025;1274;113399;-66
2022/03/20 09:44:39;;;;;;;22.60;11.40;;;;;;;13.89;32.81;101697.10;106020;1273;99324;-65
2022/03/20 09:47:18;;;;;;;26.40;13.30;;;;;;;13.95;32.56;101698.11;106120;1273;108166;-70
2022/03/20 09:49:49;;;;;;;28.90;14.50;;;;;;;14.22;33.24;101698.64;105865;1273;99286;-71
2022/03/20 09:52:17;;;;;;;26.90;14.80;;;;;;;14.44;32.71;101691.95;105974;1273;99298;-69
2022/03/20 09:54:46;;;;;;;26.90;15.10;;;;;;;14.51;33.26;101691.08;106001;1273;113475;-70
2022/03/20 09:57:18;;;;;;;27.30;15.00;;;;;;;14.68;33.65;101692.23;105919;1273;99311;-69
2022/03/20 09:59:49;;;;;;;27.20;14.80;;;;;;;14.85;33.48;101684.11;105961;1273;107417;-70
2022/03/20 10:02:18;;;;;;;34.90;22.20;;;;;;;14.92;33.32;101687.56;105941;1273;99270;-70
2022/03/20 10:05:08;;;;;;;27.80;15.70;;;;;;;14.94;33.25;101685.84;106037;1273;99128;-70
2022/03/20 10:07:42;;;;;;;25.60;14.20;;;;;;;14.92;33.35;101687.91;105968;1273;112677;-70
2022/03/20 10:10:23;;;;;;;30.30;15.70;;;;;;;14.90;33.38;101684.75;105934;1274;97849;-70
2022/03/20 10:12:57;;;;;;;26.10;13.60;;;;;;;14.79;33.15;101683.88;105985;1273;107690;-68
2022/03/20 10:15:37;;;;;;;30.50;15.60;;;;;;;14.63;33.04;101684.80;106078;1273;99322;-69
2022/03/20 10:18:08;;;;;;;26.60;14.00;;;;;;;14.50;32.76;101680.38;106042;1273;99220;-68
2022/03/20 10:20:42;;;;;;;26.40;14.00;;;;;;;14.46;32.93;101678.48;105980;1274;112334;-69
2022/03/20 10:23:36;;;;;;;27.80;15.10;;;;;;;14.47;32.53;101676.62;106103;1273;97731;-69
2022/03/20 10:26:09;;;;;;;25.90;14.00;;;;;;;14.48;32.68;101673.91;105988;1273;107753;-68
2022/03/20 10:28:47;;;;;;;30.70;16.80;;;;;;;14.40;32.31;101671.60;105872;1273;99099;-68
2022/03/20 10:31:21;;;;;;;26.20;14.80;;;;;;;14.25;32.29;101673.91;105896;1273;97821;-70
2022/03/20 10:34:00;;;;;;;28.20;15.10;;;;;;;13.99;32.14;101667.77;106070;1273;112726;-70
2022/03/20 10:36:28;;;;;;;27.40;15.00;;;;;;;13.94;32.32;101660.69;106152;1273;99834;-69
2022/03/20 10:38:56;;;;;;;26.60;15.00;;;;;;;13.92;31.77;101660.94;105935;1273;107718;-69
2022/03/20 10:41:26;;;;;;;26.20;13.60;;;;;;;13.78;31.87;101663.52;105944;1272;99219;-69
2022/03/20 10:43:56;;;;;;;28.60;15.90;;;;;;;13.74;31.97;101659.41;106077;1273;99105;-69
2022/03/20 10:46:28;;;;;;;24.90;12.90;;;;;;;13.74;31.81;101653.20;105920;1273;114225;-69
2022/03/20 10:49:00;;;;;;;29.80;15.10;;;;;;;13.71;31.48;101652.63;106004;1273;100037;-69
2022/03/20 10:51:38;;;;;;;29.80;15.10;;;;;;;13.69;31.89;101648.23;106026;1273;108409;-69
2022/03/20 10:54:15;;;;;;;26.80;13.30;;;;;;;13.67;31.45;101643.14;106026;1273;98073;-71
2022/03/20 10:56:56;;;;;;;27.20;13.70;;;;;;;13.68;31.28;101643.80;106091;1273;99279;-72
2022/03/20 10:59:26;;;;;;;25.20;13.10;;;;;;;13.72;31.06;101639.70;106076;1273;112877;-69
2022/03/20 11:01:54;;;;;;;25.10;13.00;;;;;;;13.69;31.51;101638.77;105950;1274;100506;-70
2022/03/20 11:04:23;;;;;;;24.20;11.50;;;;;;;13.65;31.39;101637.55;105961;1274;107596;-69
2022/03/20 11:06:55;;;;;;;24.70;12.80;;;;;;;13.72;31.23;101637.06;105977;1273;99242;-69
2022/03/20 11:09:23;;;;;;;28.70;14.00;;;;;;;13.82;31.26;101628.92;106014;1273;99205;-69
2022/03/20 11:11:54;;;;;;;28.40;12.70;;;;;;;13.86;31.30;101635.90;105908;1273;112491;-70
2022/03/20 11:14:24;;;;;;;26.50;11.50;;;;;;;13.87;31.22;101626.57;106083;1273;99224;-68
2022/03/20 11:17:05;;;;;;;24.90;11.50;;;;;;;13.89;31.11;101620.06;106026;1274;108359;-67
2022/03/20 11:19:36;;;;;;;23.40;11.00;;;;;;;13.80;30.82;101617.79;106075;1273;99347;-66
2022/03/20 11:22:09;;;;;;;25.10;10.60;;;;;;;13.74;30.53;101611.44;106123;1273;99227;-68
2022/03/20 11:24:39;;;;;;;23.00;10.80;;;;;;;13.67;30.57;101604.83;106143;1274;112712;-68
2022/03/20 11:27:13;;;;;;;24.40;11.60;;;;;;;13.56;30.56;101601.56;106015;1274;99317;-67
2022/03/20 11:29:48;;;;;;;23.60;11.20;;;;;;;13.51;30.60;101606.23;105936;1273;107520;-68
2022/03/20 11:32:18;;;;;;;22.50;11.20;;;;;;;13.50;30.15;101605.23;105920;1274;97832;-69
2022/03/20 11:34:48;;;;;;;21.10;10.30;;;;;;;13.41;30.13;101600.45;105945;1274;99375;-69
2022/03/20 11:37:16;;;;;;;22.70;9.90;;;;;;;13.29;29.43;101601.45;105884;1275;112735;-70
2022/03/20 11:40:08;;;;;;;21.90;10.10;;;;;;;13.17;29.58;101598.06;105950;1274;98055;-68
2022/03/20 11:42:37;;;;;;;22.50;10.90;;;;;;;13.10;29.80;101594.06;105995;1272;108349;-70
2022/03/20 11:45:05;;;;;;;26.30;13.90;;;;;;;12.88;28.95;101593.02;106061;1273;99220;-70